Time;durP1;ratioP1;P1;durP2;ratioP2;P2;SDS_P1;SDS_P2;PMS_P1;PMS_P2;Temp;Humidity;BMP_temperature;BMP_pressure;BME280_temperature;BME280_humidity;BME280_pressure;Samples;Min_cycle;Max_cycle;Signal;HPM_P1;HPM_P2
2022/08/28 00:01:06;;;;;;;6.23;4.53;;;;;;;20.20;100.00;100336.97;5096145;28;20529;-72
2022/08/28 00:03:34;;;;;;;5.20;3.87;;;;;;;20.25;100.00;100343.91;5094827;28;20450;-73
2022/08/28 00:06:02;;;;;;;6.23;4.50;;;;;;;20.28;100.00;100343.63;5098399;28;20454;-72
2022/08/28 00:08:30;;;;;;;7.60;4.60;;;;;;;20.20;100.00;100355.25;5103245;28;20465;-70
2022/08/28 00:10:57;;;;;;;5.20;3.70;;;;;;;20.22;100.00;100350.53;5082670;28;20449;-70
2022/08/28 00:13:25;;;;;;;7.03;4.10;;;;;;;20.30;100.00;100344.38;5095302;28;20445;-71
2022/08/28 00:15:56;;;;;;;4.93;4.40;;;;;;;20.28;100.00;100351.84;5103318;28;20464;-72
2022/08/28 00:18:24;;;;;;;5.27;4.00;;;;;;;20.40;100.00;100353.53;5104081;28;20445;-71
2022/08/28 00:20:51;;;;;;;5.87;4.23;;;;;;;20.42;100.00;100357.00;5096264;28;20458;-71
2022/08/28 00:23:20;;;;;;;5.17;4.30;;;;;;;20.46;100.00;100361.16;5101263;28;20473;-70
2022/08/28 00:25:46;;;;;;;5.03;4.10;;;;;;;20.51;99.71;100352.56;5101231;28;20956;-71
2022/08/28 00:28:13;;;;;;;6.60;4.10;;;;;;;20.53;99.34;100359.66;5099280;28;20461;-71
2022/08/28 00:30:42;;;;;;;4.93;4.43;;;;;;;20.57;98.98;100360.28;5102387;28;20452;-72
2022/08/28 00:33:11;;;;;;;10.80;4.70;;;;;;;20.61;98.42;100362.59;5102173;28;20481;-72
2022/08/28 00:35:39;;;;;;;7.13;4.30;;;;;;;20.68;97.79;100357.44;5107252;28;20489;-72
2022/08/28 00:38:06;;;;;;;7.43;4.67;;;;;;;20.74;97.13;100354.19;5107676;28;20437;-69
2022/08/28 00:40:35;;;;;;;6.40;4.23;;;;;;;20.68;96.84;100359.31;5117500;28;20780;-74
2022/08/28 00:43:03;;;;;;;4.93;3.87;;;;;;;20.55;97.81;100363.09;5108811;28;20507;-71
2022/08/28 00:45:31;;;;;;;5.57;4.07;;;;;;;20.54;98.64;100361.38;5102615;28;20458;-71
2022/08/28 00:47:58;;;;;;;4.80;4.27;;;;;;;20.60;97.97;100362.75;5097827;28;20456;-72
2022/08/28 00:52:04;;;;;;;5.37;4.13;;;;;;;20.59;98.21;100363.75;5106385;28;20919;-73
2022/08/28 00:53:18;;;;;;;5.93;4.13;;;;;;;20.59;98.01;100359.13;5108503;28;20502;-72
2022/08/28 00:55:48;;;;;;;6.17;4.63;;;;;;;20.63;98.26;100359.75;5111413;28;20506;-73
2022/08/28 00:58:15;;;;;;;5.90;4.50;;;;;;;20.68;97.61;100357.44;5108154;28;20807;-72
2022/08/28 01:00:42;;;;;;;4.77;4.17;;;;;;;20.71;97.35;100365.38;5095638;28;20461;-71
2022/08/28 01:03:10;;;;;;;4.93;3.87;;;;;;;20.63;98.15;100358.88;5101107;28;20484;-74
2022/08/28 01:05:37;;;;;;;5.50;4.63;;;;;;;20.52;98.63;100359.78;5096568;28;20450;-72
2022/08/28 01:08:04;;;;;;;4.13;3.73;;;;;;;20.57;98.58;100354.78;5091900;28;20796;-72
2022/08/28 01:10:33;;;;;;;5.50;4.23;;;;;;;20.50;98.83;100357.16;5095184;28;20461;-72
2022/08/28 01:13:02;;;;;;;5.27;3.70;;;;;;;20.57;98.62;100354.78;5093492;28;20478;-73
2022/08/28 01:15:34;;;;;;;5.63;3.97;;;;;;;20.60;98.14;100355.41;5107786;28;20504;-72
2022/08/28 01:18:04;;;;;;;5.63;4.77;;;;;;;20.61;98.45;100351.66;5106680;28;20461;-71
2022/08/28 01:20:34;;;;;;;4.67;3.67;;;;;;;20.58;98.73;100356.56;5102333;28;20457;-70
2022/08/28 01:23:09;;;;;;;5.40;3.90;;;;;;;20.54;98.75;100350.44;5101449;28;21026;-72
2022/08/28 01:25:38;;;;;;;4.83;3.87;;;;;;;20.59;98.38;100348.19;5095599;28;20451;-72
2022/08/28 01:28:09;;;;;;;5.23;4.00;;;;;;;20.55;98.31;100348.56;5103454;28;20830;-70
2022/08/28 01:30:35;;;;;;;5.03;3.50;;;;;;;20.53;99.07;100348.72;5097882;28;20449;-71
2022/08/28 01:33:02;;;;;;;6.93;3.97;;;;;;;20.52;99.09;100352.44;5097744;28;20482;-71
2022/08/28 01:35:32;;;;;;;5.37;3.50;;;;;;;20.49;99.47;100349.13;5094555;28;20489;-71
2022/08/28 01:37:59;;;;;;;4.40;3.90;;;;;;;20.50;99.44;100354.44;5104600;28;20453;-70
2022/08/28 01:40:30;;;;;;;6.50;4.50;;;;;;;20.51;99.07;100347.97;5104583;28;20537;-71
2022/08/28 01:43:06;;;;;;;5.23;4.47;;;;;;;20.49;99.34;100349.97;5110624;28;20488;-71
2022/08/28 01:45:32;;;;;;;6.23;4.20;;;;;;;20.45;99.78;100351.25;5120748;28;20541;-70
2022/08/28 01:47:59;;;;;;;6.47;4.40;;;;;;;20.41;100.00;100352.50;5103984;28;20517;-70
2022/08/28 01:50:26;;;;;;;6.27;4.40;;;;;;;20.38;100.00;100350.06;5107989;28;20468;-70
2022/08/28 01:52:52;;;;;;;3.87;3.53;;;;;;;20.46;100.00;100360.31;5089348;28;20477;-70
2022/08/28 01:55:19;;;;;;;4.50;3.80;;;;;;;20.44;100.00;100352.22;5103261;28;20477;-71
2022/08/28 01:57:48;;;;;;;4.40;3.60;;;;;;;20.48;100.00;100352.84;5106872;28;20429;-73
2022/08/28 02:00:17;;;;;;;5.13;4.27;;;;;;;20.49;100.00;100354.59;5105997;28;20465;-72
2022/08/28 02:02:44;;;;;;;5.20;4.10;;;;;;;20.51;99.67;100360.78;5105296;28;20576;-72
2022/08/28 02:05:11;;;;;;;6.17;3.53;;;;;;;20.44;99.76;100354.09;5098382;28;20563;-73
2022/08/28 02:07:38;;;;;;;6.33;4.30;;;;;;;20.47;99.51;100359.31;5093087;28;20472;-72
2022/08/28 02:10:06;;;;;;;4.90;4.20;;;;;;;20.36;100.00;100363.00;5096931;28;20445;-71
2022/08/28 02:12:32;;;;;;;4.60;4.17;;;;;;;20.32;100.00;100362.38;5094064;28;20474;-72
2022/08/28 02:14:59;;;;;;;6.57;4.80;;;;;;;20.33;100.00;100364.13;5101924;28;20485;-71
2022/08/28 02:17:27;;;;;;;5.83;4.73;;;;;;;20.38;100.00;100361.00;5099967;28;20454;-72
2022/08/28 02:19:54;;;;;;;5.60;4.47;;;;;;;20.37;100.00;100367.44;5100115;28;20524;-73
2022/08/28 02:22:20;;;;;;;6.43;4.17;;;;;;;20.37;100.00;100364.72;5096710;28;20791;-72
2022/08/28 02:24:47;;;;;;;6.10;4.90;;;;;;;20.44;100.00;100367.78;5098941;28;20492;-71
2022/08/28 02:27:13;;;;;;;6.10;4.57;;;;;;;20.44;100.00;100362.31;5102010;28;20529;-71
2022/08/28 02:29:40;;;;;;;7.23;5.03;;;;;;;20.44;100.00;100371.38;5104532;28;20457;-71
2022/08/28 02:32:06;;;;;;;5.70;4.77;;;;;;;20.44;100.00;100363.16;5097215;28;20854;-71
2022/08/28 02:34:34;;;;;;;5.43;3.90;;;;;;;20.41;100.00;100369.78;5108772;28;20857;-71
2022/08/28 02:37:01;;;;;;;8.00;4.63;;;;;;;20.46;100.00;100363.91;5102289;28;20440;-71
2022/08/28 02:39:28;;;;;;;6.80;5.03;;;;;;;20.49;99.26;100365.53;5110023;28;20460;-71
2022/08/28 02:41:55;;;;;;;6.73;4.53;;;;;;;20.41;99.81;100361.56;5103222;28;20478;-72
2022/08/28 02:44:21;;;;;;;8.43;4.97;;;;;;;20.44;99.55;100367.78;5104914;28;20450;-72
2022/08/28 02:46:48;;;;;;;4.90;4.47;;;;;;;20.42;100.00;100371.53;5105267;28;20480;-71
2022/08/28 02:49:14;;;;;;;4.57;4.00;;;;;;;20.44;99.74;100365.91;5095553;28;20458;-71
2022/08/28 02:51:42;;;;;;;6.37;4.47;;;;;;;20.45;99.44;100375.00;5105851;28;20480;-73
2022/08/28 02:54:08;;;;;;;5.40;4.30;;;;;;;20.36;100.00;100369.31;5103287;28;20524;-72
2022/08/28 02:56:35;;;;;;;14.77;4.80;;;;;;;20.34;100.00;100365.84;5099600;28;20480;-71
2022/08/28 02:59:02;;;;;;;4.77;4.20;;;;;;;20.32;100.00;100369.72;5100572;28;20533;-70
2022/08/28 03:01:28;;;;;;;5.63;4.60;;;;;;;20.36;100.00;100365.72;5108111;28;20477;-72
2022/08/28 03:03:55;;;;;;;5.83;4.30;;;;;;;20.35;100.00;100370.34;5108702;28;20523;-71
2022/08/28 03:06:21;;;;;;;6.33;4.40;;;;;;;20.42;99.60;100367.94;5104351;28;20454;-72
2022/08/28 03:08:49;;;;;;;8.30;4.70;;;;;;;20.36;99.97;100369.31;5099976;28;20905;-71
2022/08/28 03:11:16;;;;;;;5.03;4.50;;;;;;;20.38;100.00;100371.94;5109084;28;20453;-70
2022/08/28 03:13:43;;;;;;;5.03;4.30;;;;;;;20.35;100.00;100369.44;5095313;28;20507;-73
2022/08/28 03:16:09;;;;;;;9.43;4.43;;;;;;;20.37;100.00;100375.66;5101907;28;20491;-72
2022/08/28 03:18:36;;;;;;;8.50;4.50;;;;;;;20.34;100.00;100365.00;5099004;28;20452;-72
2022/08/28 03:21:03;;;;;;;7.10;4.63;;;;;;;20.38;99.74;100372.78;5095193;28;20965;-72
2022/08/28 03:23:30;;;;;;;7.93;4.60;;;;;;;20.34;100.00;100379.53;5096312;28;20472;-73
2022/08/28 03:26:00;;;;;;;4.60;4.20;;;;;;;20.37;100.00;100376.53;5102372;28;20445;-71
2022/08/28 03:28:30;;;;;;;4.40;3.77;;;;;;;20.40;99.83;100376.25;5105210;28;20455;-71
2022/08/28 03:30:57;;;;;;;7.20;4.00;;;;;;;20.43;99.43;100369.66;5105952;28;20544;-71
2022/08/28 03:33:24;;;;;;;6.73;4.20;;;;;;;20.47;98.80;100365.66;5106786;28;20478;-70
2022/08/28 03:35:50;;;;;;;7.00;4.53;;;;;;;20.49;98.65;100377.34;5109409;28;20474;-71
2022/08/28 03:38:18;;;;;;;5.10;4.13;;;;;;;20.53;97.95;100375.19;5105319;28;20460;-72
2022/08/28 03:40:46;;;;;;;6.00;4.20;;;;;;;20.43;99.07;100375.13;5101706;28;20449;-73
2022/08/28 03:43:16;;;;;;;8.37;4.83;;;;;;;20.40;98.77;100375.41;5101271;28;20465;-73
2022/08/28 03:45:51;;;;;;;4.90;4.40;;;;;;;20.37;99.44;100382.00;5103828;28;20446;-72
2022/08/28 03:48:19;;;;;;;5.10;3.73;;;;;;;20.34;99.72;100382.25;5113929;28;20429;-70
2022/08/28 03:50:45;;;;;;;8.23;4.50;;;;;;;20.32;99.27;100373.31;5108380;28;20445;-72
2022/08/28 03:53:12;;;;;;;8.03;4.30;;;;;;;20.26;100.00;100373.88;5124646;28;20551;-71
2022/08/28 03:55:40;;;;;;;8.73;4.37;;;;;;;20.27;100.00;100369.25;5120527;28;20497;-72
2022/08/28 03:58:06;;;;;;;8.20;4.20;;;;;;;20.26;99.80;100378.44;5115633;28;20922;-71
2022/08/28 04:00:35;;;;;;;6.13;4.47;;;;;;;20.22;99.76;100374.28;5114011;28;20504;-72
2022/08/28 04:03:03;;;;;;;7.03;4.50;;;;;;;20.26;99.34;100372.97;5104378;28;20477;-72
2022/08/28 04:05:30;;;;;;;7.10;4.73;;;;;;;20.26;99.74;100373.88;5117948;28;20449;-73
2022/08/28 04:07:57;;;;;;;5.00;4.10;;;;;;;20.23;98.83;100381.47;5115726;28;20443;-71
2022/08/28 04:10:24;;;;;;;6.50;4.10;;;;;;;20.24;99.50;100375.88;5108395;28;20454;-70
2022/08/28 04:12:50;;;;;;;6.83;4.87;;;;;;;20.31;98.14;100381.69;5094900;28;20457;-73
2022/08/28 04:15:19;;;;;;;6.30;3.67;;;;;;;20.36;97.78;100379.41;5094273;28;20484;-72
2022/08/28 04:17:47;;;;;;;6.77;4.50;;;;;;;20.28;98.05;100381.91;5095234;28;20442;-72
2022/08/28 04:20:13;;;;;;;6.67;3.70;;;;;;;20.31;97.77;100382.53;5101615;28;20454;-71
2022/08/28 04:22:40;;;;;;;5.00;3.80;;;;;;;20.27;97.30;100381.06;5094485;28;21020;-71
2022/08/28 04:25:08;;;;;;;7.00;3.90;;;;;;;20.27;96.75;100382.94;5092612;28;20438;-73
2022/08/28 04:27:34;;;;;;;7.13;4.60;;;;;;;20.18;97.74;100381.84;5087975;28;20456;-73
2022/08/28 04:30:01;;;;;;;5.60;3.70;;;;;;;20.23;97.94;100384.19;5099609;28;20489;-73
2022/08/28 04:32:28;;;;;;;3.50;3.20;;;;;;;20.23;96.64;100389.66;5106884;22;20517;-70
2022/08/28 04:34:56;;;;;;;6.83;3.80;;;;;;;20.18;96.67;100387.31;5060223;28;20575;-71
2022/08/28 04:37:22;;;;;;;6.00;4.40;;;;;;;20.10;98.05;100393.47;5064569;28;20455;-71
2022/08/28 04:39:49;;;;;;;4.50;3.57;;;;;;;20.20;97.08;100394.41;5058335;28;20451;-71
2022/08/28 04:42:15;;;;;;;8.53;3.83;;;;;;;20.30;96.27;100391.72;5059068;28;20483;-71
2022/08/28 04:44:42;;;;;;;6.80;3.70;;;;;;;20.18;94.07;100396.38;5041746;28;21155;-71
2022/08/28 04:47:08;;;;;;;4.90;3.17;;;;;;;20.25;95.13;100391.25;5039605;28;20452;-72
2022/08/28 04:49:35;;;;;;;9.93;3.50;;;;;;;20.29;93.78;100400.94;5042416;28;20944;-70
2022/08/28 04:52:04;;;;;;;10.67;3.70;;;;;;;20.34;93.75;100398.66;5045095;28;20463;-71
2022/08/28 04:54:32;;;;;;;9.10;3.70;;;;;;;20.39;92.37;100403.75;5038293;28;20463;-71
2022/08/28 04:56:59;;;;;;;4.40;3.00;;;;;;;20.30;93.25;100399.06;5042822;28;20567;-71
2022/08/28 04:59:25;;;;;;;8.37;4.30;;;;;;;20.28;93.37;100398.31;5046027;28;20464;-71
2022/08/28 05:01:52;;;;;;;7.93;4.00;;;;;;;20.25;93.02;100406.81;5038558;28;20459;-71
2022/08/28 05:04:19;;;;;;;6.80;3.50;;;;;;;20.24;93.11;100405.94;5047334;28;20522;-74
2022/08/28 05:06:46;;;;;;;4.77;3.33;;;;;;;20.30;92.34;100407.28;5045452;28;20440;-75
2022/08/28 05:09:15;;;;;;;5.87;3.67;;;;;;;20.30;92.38;100404.53;5038879;28;20433;-69
2022/08/28 05:11:43;;;;;;;6.07;3.20;;;;;;;20.31;92.68;100414.50;5037211;28;20796;-71
2022/08/28 05:14:10;;;;;;;6.13;4.17;;;;;;;20.29;92.16;100411.88;5037508;28;20510;-71
2022/08/28 05:16:42;;;;;;;6.47;3.83;;;;;;;20.31;92.70;100414.50;5040043;28;20567;-73
2022/08/28 05:19:10;;;;;;;4.03;3.07;;;;;;;20.38;91.91;100422.03;5033094;28;20897;-72
2022/08/28 05:21:36;;;;;;;6.80;3.50;;;;;;;20.48;91.29;100415.75;5030980;28;20453;-71
2022/08/28 05:24:03;;;;;;;6.37;3.40;;;;;;;20.46;90.82;100429.56;5036183;28;20446;-72
2022/08/28 05:26:32;;;;;;;5.30;2.93;;;;;;;20.40;91.04;100435.56;5036777;28;20447;-72
2022/08/28 05:28:59;;;;;;;7.10;3.43;;;;;;;20.36;91.92;100434.97;5030277;28;20833;-71
2022/08/28 05:31:28;;;;;;;7.50;3.83;;;;;;;20.27;92.48;100440.38;5036051;28;20437;-69
2022/08/28 05:33:55;;;;;;;12.40;4.17;;;;;;;20.28;92.06;100433.88;5035445;28;20498;-69
2022/08/28 05:36:23;;;;;;;5.93;3.80;;;;;;;20.39;91.94;100447.50;5035212;28;20480;-70
2022/08/28 05:38:51;;;;;;;6.83;3.27;;;;;;;20.38;92.00;100449.38;5034880;28;20572;-72
2022/08/28 05:41:20;;;;;;;7.73;4.27;;;;;;;20.39;90.75;100456.56;5035051;28;20433;-71
2022/08/28 05:43:48;;;;;;;7.43;3.53;;;;;;;20.40;90.71;100452.84;5035525;28;20514;-73
2022/08/28 05:46:16;;;;;;;4.20;3.33;;;;;;;20.53;90.08;100458.16;5035621;28;20447;-72
2022/08/28 05:48:44;;;;;;;4.27;3.43;;;;;;;20.49;90.18;100451.19;5035397;28;21045;-72
2022/08/28 05:51:13;;;;;;;4.47;3.10;;;;;;;20.67;89.10;100458.81;5039814;28;20520;-72
2022/08/28 05:53:41;;;;;;;4.93;3.20;;;;;;;20.76;88.04;100458.91;5035054;28;20468;-69
2022/08/28 05:56:09;;;;;;;7.23;3.43;;;;;;;20.74;88.04;100452.69;5033256;28;20488;-70
2022/08/28 05:58:36;;;;;;;5.37;3.93;;;;;;;20.89;87.29;100458.69;5041703;28;20992;-72
2022/08/28 06:01:11;;;;;;;5.77;3.70;;;;;;;20.95;86.16;100458.16;5055814;28;20444;-72
2022/08/28 06:03:39;;;;;;;5.67;3.23;;;;;;;21.33;83.46;100462.09;5053132;28;20478;-73
2022/08/28 06:06:07;;;;;;;6.97;3.30;;;;;;;21.47;82.60;100457.28;5027092;28;20950;-72
2022/08/28 06:08:34;;;;;;;5.90;3.67;;;;;;;21.68;80.48;100459.94;5036010;28;20450;-71
2022/08/28 06:11:01;;;;;;;4.90;3.60;;;;;;;22.00;78.44;100462.44;5034933;28;20452;-72
2022/08/28 06:13:28;;;;;;;6.00;3.20;;;;;;;22.08;77.05;100457.13;5049414;28;21017;-71
2022/08/28 06:15:56;;;;;;;7.00;3.40;;;;;;;22.28;76.41;100460.81;5033247;28;20498;-72
2022/08/28 06:18:25;;;;;;;7.63;3.60;;;;;;;22.26;75.40;100455.44;5037196;28;20551;-73
2022/08/28 06:20:53;;;;;;;4.43;3.10;;;;;;;22.32;74.93;100462.25;5055617;28;20443;-71
2022/08/28 06:23:21;;;;;;;6.80;3.23;;;;;;;22.26;74.61;100458.19;5040844;28;20919;-71
2022/08/28 06:25:50;;;;;;;7.23;3.20;;;;;;;22.38;74.46;100467.13;5039797;28;20799;-71
2022/08/28 06:28:18;;;;;;;8.17;3.30;;;;;;;22.26;74.61;100462.81;5046073;28;20533;-70
2022/08/28 06:30:45;;;;;;;6.10;3.13;;;;;;;22.31;74.37;100466.00;5032099;28;20456;-69
2022/08/28 06:33:15;;;;;;;6.83;2.83;;;;;;;22.10;74.93;100463.34;5042830;28;20476;-69
2022/08/28 06:35:44;;;;;;;6.60;4.10;;;;;;;22.18;74.53;100458.03;5059954;28;20506;-70
2022/08/28 06:38:11;;;;;;;6.30;3.03;;;;;;;22.18;74.68;100466.25;5055073;28;20440;-70
2022/08/28 06:40:39;;;;;;;4.60;3.10;;;;;;;22.14;74.83;100472.13;5054666;28;20440;-71
2022/08/28 06:43:06;;;;;;;7.10;2.97;;;;;;;22.19;74.22;100473.47;5053979;28;20463;-70
2022/08/28 06:45:33;;;;;;;5.03;3.33;;;;;;;22.06;74.35;100476.47;5043976;28;20981;-70
2022/08/28 06:47:59;;;;;;;5.40;2.77;;;;;;;22.10;74.58;100479.81;5042778;28;20431;-71
2022/08/28 06:50:26;;;;;;;6.07;3.80;;;;;;;22.18;74.40;100474.50;5033329;28;20452;-69
2022/08/28 06:52:54;;;;;;;9.47;3.60;;;;;;;22.04;74.03;100474.88;5044059;28;20460;-71
2022/08/28 06:55:20;;;;;;;8.87;2.83;;;;;;;22.03;74.68;100486.88;5053041;28;20446;-71
2022/08/28 06:57:47;;;;;;;4.67;3.00;;;;;;;22.10;73.85;100481.69;5041747;28;20440;-71
2022/08/28 07:00:14;;;;;;;7.67;3.53;;;;;;;22.04;73.40;100483.09;5035052;28;20441;-69
2022/08/28 07:02:41;;;;;;;4.80;2.90;;;;;;;22.28;72.36;100480.00;5034354;28;20461;-70
2022/08/28 07:05:07;;;;;;;3.83;3.00;;;;;;;22.41;70.77;100482.44;5034750;28;20463;-70
2022/08/28 07:07:34;;;;;;;4.70;3.10;;;;;;;22.34;70.59;100484.03;5043321;28;20455;-71
2022/08/28 07:10:02;;;;;;;4.53;2.60;;;;;;;22.54;70.31;100482.16;5031659;28;20464;-70
2022/08/28 07:12:29;;;;;;;6.60;3.17;;;;;;;22.38;70.80;100480.00;5036807;28;20460;-71
2022/08/28 07:14:55;;;;;;;5.00;2.70;;;;;;;22.60;69.42;100482.44;5034768;28;20930;-70
2022/08/28 07:17:22;;;;;;;5.07;3.00;;;;;;;22.69;68.86;100491.69;5030396;28;20476;-70
2022/08/28 07:19:48;;;;;;;4.70;3.40;;;;;;;22.95;67.64;100497.44;5018102;28;20448;-69
2022/08/28 07:22:15;;;;;;;8.97;2.50;;;;;;;23.02;67.22;100501.38;5019507;28;20528;-71
2022/08/28 07:24:42;;;;;;;8.00;2.87;;;;;;;22.72;67.51;100499.63;5034987;28;20444;-71
2022/08/28 07:27:09;;;;;;;5.73;3.03;;;;;;;22.52;68.29;100501.50;5034085;28;20466;-71
2022/08/28 07:29:36;;;;;;;6.73;2.77;;;;;;;22.78;67.32;100498.19;5023795;28;20816;-70
2022/08/28 07:32:03;;;;;;;4.83;3.07;;;;;;;22.79;67.57;100499.91;5015237;28;20465;-70
2022/08/28 07:34:30;;;;;;;5.60;3.30;;;;;;;22.47;68.58;100501.94;5017141;28;20429;-70
2022/08/28 07:37:02;;;;;;;5.00;2.80;;;;;;;22.74;67.93;100500.34;5034752;28;20495;-71
2022/08/28 07:39:30;;;;;;;5.80;3.00;;;;;;;22.76;67.02;100497.47;5023881;28;20447;-70
2022/08/28 07:41:56;;;;;;;4.23;2.70;;;;;;;22.79;66.04;100497.16;5034922;28;20450;-74
2022/08/28 07:47:10;;;;;;;5.63;2.60;;;;;;;23.65;63.79;100506.22;5028749;28;20421;-69
2022/08/28 07:49:38;;;;;;;7.30;3.03;;;;;;;24.48;59.99;100503.44;5025695;28;20529;-70
2022/08/28 07:52:05;;;;;;;5.20;2.73;;;;;;;24.69;58.47;100503.13;5035158;28;20571;-70
2022/08/28 07:54:34;;;;;;;6.13;3.37;;;;;;;24.93;57.32;100505.19;5040465;28;20452;-70
2022/08/28 07:57:02;;;;;;;6.47;2.93;;;;;;;25.21;55.61;100506.97;5037466;28;20495;-69
2022/08/28 07:59:29;;;;;;;5.77;3.30;;;;;;;25.44;54.29;100508.16;5052365;28;20452;-70
2022/08/28 08:01:56;;;;;;;4.47;2.80;;;;;;;25.49;54.26;100522.31;5037621;28;20821;-69
2022/08/28 08:04:24;;;;;;;5.60;2.70;;;;;;;25.50;53.97;100524.03;5028457;28;20467;-70
2022/08/28 08:06:52;;;;;;;7.17;3.47;;;;;;;25.70;52.71;100524.66;5034575;28;20451;-69
2022/08/28 08:09:20;;;;;;;5.73;2.63;;;;;;;25.96;51.90;100524.66;5042508;28;20964;-70
2022/08/28 08:11:47;;;;;;;6.97;2.30;;;;;;;26.37;50.56;100526.66;5059145;28;20849;-70
2022/08/28 08:14:15;;;;;;;4.80;2.40;;;;;;;27.24;48.44;100525.16;5058224;28;20478;-70
2022/08/28 08:16:44;;;;;;;3.80;2.40;;;;;;;27.99;45.55;100529.47;5049314;28;20502;-70
2022/08/28 08:19:13;;;;;;;4.50;2.70;;;;;;;28.57;43.85;100527.25;5047037;28;20446;-70
2022/08/28 08:21:41;;;;;;;5.33;2.77;;;;;;;29.50;41.75;100533.56;5038112;28;20833;-68
2022/08/28 08:24:08;;;;;;;8.40;3.10;;;;;;;30.26;40.43;100538.91;5058908;28;20450;-72
2022/08/28 08:26:34;;;;;;;7.07;2.27;;;;;;;31.02;38.73;100536.53;5044685;28;20821;-69
2022/08/28 08:29:01;;;;;;;4.83;2.50;;;;;;;31.63;37.76;100540.69;5053340;28;20470;-70
2022/08/28 08:31:31;;;;;;;3.27;2.37;;;;;;;32.15;36.75;100550.41;5051481;28;20551;-70
2022/08/28 08:34:01;;;;;;;5.13;2.40;;;;;;;32.56;35.89;100539.25;5045294;28;20479;-72
2022/08/28 08:36:29;;;;;;;3.80;2.30;;;;;;;32.56;36.08;100535.56;5048556;28;20996;-69
2022/08/28 08:38:56;;;;;;;6.20;2.23;;;;;;;32.63;35.44;100535.59;5052562;28;20451;-71
2022/08/28 08:41:27;;;;;;;5.70;2.63;;;;;;;33.49;34.21;100540.38;5050821;28;20491;-70
2022/08/28 08:43:59;;;;;;;5.10;2.50;;;;;;;33.54;33.66;100535.03;5037566;28;20464;-69
2022/08/28 08:46:32;;;;;;;7.93;2.10;;;;;;;32.99;34.57;100544.47;5037872;28;20444;-71
2022/08/28 08:49:02;;;;;;;4.57;2.50;;;;;;;33.40;33.95;100542.53;5039214;28;20458;-70
2022/08/28 08:51:42;;;;;;;6.97;2.57;;;;;;;33.53;33.39;100536.94;5043414;28;20944;-71
2022/08/28 08:54:12;;;;;;;4.83;2.37;;;;;;;33.56;33.65;100535.63;5042890;28;20452;-72
2022/08/28 08:56:39;;;;;;;4.67;2.90;;;;;;;34.34;32.55;100545.97;5031101;28;20476;-69
2022/08/28 08:59:10;;;;;;;6.27;2.20;;;;;;;35.11;31.57;100548.72;5044013;28;20811;-70
2022/08/28 09:01:44;;;;;;;5.03;2.17;;;;;;;35.75;30.42;100544.72;5038419;28;20879;-70
2022/08/28 09:04:23;;;;;;;4.43;2.20;;;;;;;34.53;31.23;100552.53;5048139;28;20437;-70
2022/08/28 09:06:54;;;;;;;4.73;2.63;;;;;;;34.57;31.95;100549.06;5039911;28;20448;-70
2022/08/28 09:09:27;;;;;;;6.57;2.73;;;;;;;35.91;30.36;100544.13;5054992;28;20855;-70
2022/08/28 09:11:57;;;;;;;6.97;2.27;;;;;;;36.36;29.56;100548.53;5057465;28;20416;-71
2022/08/28 09:14:33;;;;;;;9.60;2.80;;;;;;;35.36;30.28;100544.00;5056429;28;20428;-69
2022/08/28 09:17:01;;;;;;;6.97;2.53;;;;;;;35.75;30.00;100541.06;5035935;28;20832;-72
2022/08/28 09:19:29;;;;;;;5.00;2.27;;;;;;;36.59;29.13;100544.13;5054039;28;20444;-70
2022/08/28 09:21:56;;;;;;;5.10;2.10;;;;;;;37.06;28.50;100555.50;5060525;28;20448;-70
2022/08/28 09:24:27;;;;;;;3.90;1.97;;;;;;;38.17;27.36;100558.50;5048422;28;20463;-71
2022/08/28 09:26:57;;;;;;;3.23;2.17;;;;;;;38.63;26.65;100556.66;5028181;28;20457;-70
2022/08/28 09:29:28;;;;;;;3.50;1.97;;;;;;;38.50;26.75;100554.16;5046595;28;20450;-71
2022/08/28 09:31:55;;;;;;;3.47;2.10;;;;;;;39.31;25.55;100559.59;5035707;28;20444;-70
2022/08/28 09:34:31;;;;;;;4.20;2.20;;;;;;;39.10;25.86;100556.41;5045237;28;20462;-71
2022/08/28 09:36:58;;;;;;;4.33;2.20;;;;;;;38.47;25.93;100555.50;5042384;28;20980;-70
2022/08/28 09:39:27;;;;;;;3.97;2.40;;;;;;;38.95;25.84;100557.00;5046180;28;20467;-71
2022/08/28 09:44:51;;;;;;;4.07;2.27;;;;;;;40.59;24.06;100559.47;5049666;28;20415;-71
2022/08/28 09:47:36;;;;;;;4.00;2.17;;;;;;;41.16;23.84;100555.28;5058144;28;20428;-70
2022/08/28 09:50:23;;;;;;;5.10;2.77;;;;;;;40.50;24.11;100560.19;5058120;28;20446;-71
2022/08/28 09:52:52;;;;;;;4.47;2.40;;;;;;;39.54;25.12;100559.41;5058191;28;20464;-70
2022/08/28 09:55:25;;;;;;;3.07;2.17;;;;;;;36.68;27.59;100552.00;5061624;28;20530;-69
2022/08/28 09:57:53;;;;;;;6.23;2.60;;;;;;;36.13;28.03;100554.03;5049802;28;20468;-70
2022/08/28 10:00:21;;;;;;;6.53;2.23;;;;;;;35.65;29.03;100544.41;5053092;28;20441;-69
2022/08/28 10:02:52;;;;;;;3.93;2.03;;;;;;;35.26;29.29;100550.13;5064207;28;20494;-69
2022/08/28 10:05:34;;;;;;;4.40;2.37;;;;;;;35.09;29.19;100549.78;5044221;28;20457;-70
2022/08/28 10:08:07;;;;;;;3.23;1.70;;;;;;;34.08;30.58;100544.13;5040337;28;20813;-70
2022/08/28 10:10:38;;;;;;;6.77;2.50;;;;;;;32.58;32.22;100530.66;5045658;28;20441;-70
2022/08/28 10:13:12;;;;;;;5.23;2.20;;;;;;;31.49;34.29;100536.97;5039593;28;20480;-70
2022/08/28 10:15:57;;;;;;;6.40;2.60;;;;;;;31.75;34.38;100536.28;5040968;28;20443;-70
2022/08/28 10:18:38;;;;;;;5.03;2.40;;;;;;;32.22;33.49;100528.16;5040050;28;20532;-71
2022/08/28 10:21:14;;;;;;;6.47;2.37;;;;;;;32.96;32.28;100530.06;5036535;28;20969;-71
2022/08/28 10:23:57;;;;;;;7.03;3.37;;;;;;;34.10;31.08;100540.06;5045770;28;20851;-70
2022/08/28 10:26:33;;;;;;;6.20;2.83;;;;;;;34.86;29.69;100541.16;5048533;28;20440;-70
2022/08/28 10:29:17;;;;;;;4.60;2.23;;;;;;;35.44;29.42;100531.69;5035058;28;20429;-70
2022/08/28 10:31:54;;;;;;;5.47;2.60;;;;;;;35.30;29.10;100533.75;5034540;28;20431;-71
2022/08/28 10:34:41;;;;;;;4.90;2.37;;;;;;;35.21;29.20;100532.28;5085451;22;20489;-73
2022/08/28 10:37:23;;;;;;;4.17;2.60;;;;;;;34.84;29.62;100529.34;5092519;28;20557;-74
2022/08/28 10:39:55;;;;;;;3.93;2.10;;;;;;;34.99;29.68;100529.03;5092759;28;20437;-73
2022/08/28 10:42:29;;;;;;;4.03;2.63;;;;;;;34.51;29.58;100530.41;5093053;28;20458;-74
2022/08/28 10:45:03;;;;;;;5.93;2.63;;;;;;;33.50;31.46;100529.00;5082563;28;20506;-71
2022/08/28 10:47:34;;;;;;;3.77;2.70;;;;;;;34.73;29.93;100532.88;5069280;28;20469;-73
2022/08/28 10:50:08;;;;;;;3.40;2.67;;;;;;;36.46;27.66;100533.97;5069999;28;20447;-74
2022/08/28 10:52:41;;;;;;;5.00;2.77;;;;;;;38.48;25.52;100533.84;5064857;28;20458;-73
2022/08/28 10:55:13;;;;;;;6.20;2.57;;;;;;;39.21;24.66;100540.53;5072861;28;20446;-74
2022/08/28 10:57:44;;;;;;;4.40;2.13;;;;;;;40.10;24.01;100530.34;5071814;28;20573;-72
2022/08/28 11:00:14;;;;;;;3.50;2.07;;;;;;;39.55;24.21;100529.25;5072868;28;20454;-74
2022/08/28 11:02:44;;;;;;;3.70;1.90;;;;;;;39.25;24.48;100530.47;5073458;28;20496;-74
2022/08/28 11:05:11;;;;;;;4.50;2.57;;;;;;;39.68;24.39;100525.22;5072757;28;20807;-74
2022/08/28 11:07:49;;;;;;;4.47;1.97;;;;;;;41.11;22.95;100526.91;5072777;28;20533;-74
2022/08/28 11:10:20;;;;;;;2.90;1.93;;;;;;;41.43;22.68;100517.59;5073377;28;20423;-73
2022/08/28 11:12:50;;;;;;;3.93;2.33;;;;;;;40.68;22.91;100525.94;5074425;28;20707;-73
2022/08/28 11:15:42;;;;;;;5.47;2.30;;;;;;;41.09;22.99;100523.53;5073942;28;20435;-73
2022/08/28 11:18:45;;;;;;;3.67;2.03;;;;;;;41.63;22.33;100525.38;5072699;28;20645;-73
2022/08/28 11:21:20;;;;;;;6.33;3.50;;;;;;;42.28;22.00;100523.16;5061911;28;20533;-73
2022/08/28 11:23:55;;;;;;;4.90;3.80;;;;;;;39.99;23.67;100516.09;5075660;28;20459;-73
2022/08/28 11:26:30;;;;;;;4.67;2.57;;;;;;;37.54;25.76;100518.00;5074581;28;20426;-74
2022/08/28 11:28:56;;;;;;;3.47;2.00;;;;;;;37.21;26.14;100521.41;5076339;28;20418;-73
2022/08/28 11:31:34;;;;;;;4.47;2.80;;;;;;;36.03;27.17;100510.56;5075890;28;20478;-74
2022/08/28 11:34:01;;;;;;;4.43;1.97;;;;;;;36.11;27.43;100510.28;5078103;28;20999;-74
2022/08/28 11:37:01;;;;;;;3.70;2.33;;;;;;;35.61;27.96;100510.38;5079513;28;20435;-74
2022/08/28 11:39:29;;;;;;;5.57;2.17;;;;;;;34.87;28.80;100504.59;5076935;28;20430;-74